sensor_id;sensor_type;location;lat;lon;timestamp;P1;durP1;ratioP1;P2;durP2;ratioP2
84050;SDS011;74137;50.136;19.040;2023-12-20T00:01:31;7.90;;;3.90;;
84050;SDS011;74137;50.136;19.040;2023-12-20T00:04:01;6.60;;;3.60;;
84050;SDS011;74137;50.136;19.040;2023-12-20T00:06:32;5.90;;;3.20;;
84050;SDS011;74137;50.136;19.040;2023-12-20T00:09:02;7.10;;;3.60;;
84050;SDS011;74137;50.136;19.040;2023-12-20T00:11:31;6.80;;;3.50;;
84050;SDS011;74137;50.136;19.040;2023-12-20T00:14:00;6.40;;;3.60;;
84050;SDS011;74137;50.136;19.040;2023-12-20T00:16:29;8.20;;;4.20;;
84050;SDS011;74137;50.136;19.040;2023-12-20T00:18:58;6.00;;;3.20;;
84050;SDS011;74137;50.136;19.040;2023-12-20T00:21:27;6.20;;;3.30;;
84050;SDS011;74137;50.136;19.040;2023-12-20T00:23:58;7.10;;;3.60;;
84050;SDS011;74137;50.136;19.040;2023-12-20T00:26:28;6.60;;;3.70;;
84050;SDS011;74137;50.136;19.040;2023-12-20T00:28:57;6.40;;;3.10;;
84050;SDS011;74137;50.136;19.040;2023-12-20T00:31:26;5.70;;;3.30;;
84050;SDS011;74137;50.136;19.040;2023-12-20T00:33:58;7.10;;;3.60;;
84050;SDS011;74137;50.136;19.040;2023-12-20T00:36:27;6.00;;;2.90;;
84050;SDS011;74137;50.136;19.040;2023-12-20T00:38:56;8.80;;;3.20;;
84050;SDS011;74137;50.136;19.040;2023-12-20T00:41:26;6.40;;;3.50;;
84050;SDS011;74137;50.136;19.040;2023-12-20T00:43:54;7.10;;;3.50;;
84050;SDS011;74137;50.136;19.040;2023-12-20T00:46:23;5.40;;;3.10;;
84050;SDS011;74137;50.136;19.040;2023-12-20T00:48:53;7.60;;;3.70;;
84050;SDS011;74137;50.136;19.040;2023-12-20T00:51:22;6.50;;;3.10;;
84050;SDS011;74137;50.136;19.040;2023-12-20T00:53:51;6.20;;;3.00;;
84050;SDS011;74137;50.136;19.040;2023-12-20T00:56:23;6.50;;;3.20;;
84050;SDS011;74137;50.136;19.040;2023-12-20T00:59:22;7.70;;;3.20;;
84050;SDS011;74137;50.136;19.040;2023-12-20T01:02:35;8.10;;;3.70;;
84050;SDS011;74137;50.136;19.040;2023-12-20T01:05:35;6.50;;;3.10;;
84050;SDS011;74137;50.136;19.040;2023-12-20T01:08:29;6.30;;;2.90;;
84050;SDS011;74137;50.136;19.040;2023-12-20T01:10:58;7.00;;;3.30;;
84050;SDS011;74137;50.136;19.040;2023-12-20T01:13:28;7.10;;;3.20;;
84050;SDS011;74137;50.136;19.040;2023-12-20T01:15:56;8.20;;;3.20;;
84050;SDS011;74137;50.136;19.040;2023-12-20T01:18:32;6.00;;;3.10;;
84050;SDS011;74137;50.136;19.040;2023-12-20T01:21:04;6.00;;;3.00;;
84050;SDS011;74137;50.136;19.040;2023-12-20T01:23:36;6.60;;;3.70;;
84050;SDS011;74137;50.136;19.040;2023-12-20T01:26:07;5.70;;;2.90;;
84050;SDS011;74137;50.136;19.040;2023-12-20T01:28:35;7.10;;;3.20;;
84050;SDS011;74137;50.136;19.040;2023-12-20T01:31:10;8.20;;;3.60;;
84050;SDS011;74137;50.136;19.040;2023-12-20T01:33:40;6.60;;;3.10;;
84050;SDS011;74137;50.136;19.040;2023-12-20T01:36:15;6.70;;;2.80;;
84050;SDS011;74137;50.136;19.040;2023-12-20T01:38:50;6.40;;;3.30;;
84050;SDS011;74137;50.136;19.040;2023-12-20T01:41:35;6.50;;;3.50;;
84050;SDS011;74137;50.136;19.040;2023-12-20T01:46:35;7.00;;;3.30;;
84050;SDS011;74137;50.136;19.040;2023-12-20T01:49:04;6.00;;;3.20;;
84050;SDS011;74137;50.136;19.040;2023-12-20T01:51:33;7.30;;;3.70;;
84050;SDS011;74137;50.136;19.040;2023-12-20T01:54:02;7.50;;;3.40;;
84050;SDS011;74137;50.136;19.040;2023-12-20T01:56:32;7.10;;;3.10;;
84050;SDS011;74137;50.136;19.040;2023-12-20T01:59:01;7.20;;;3.50;;
84050;SDS011;74137;50.136;19.040;2023-12-20T02:01:32;6.30;;;3.30;;
84050;SDS011;74137;50.136;19.040;2023-12-20T02:04:01;8.50;;;3.30;;
84050;SDS011;74137;50.136;19.040;2023-12-20T02:06:31;6.50;;;3.30;;
84050;SDS011;74137;50.136;19.040;2023-12-20T02:09:02;6.00;;;3.00;;
84050;SDS011;74137;50.136;19.040;2023-12-20T02:11:30;6.80;;;3.50;;
84050;SDS011;74137;50.136;19.040;2023-12-20T02:14:00;6.60;;;3.00;;
84050;SDS011;74137;50.136;19.040;2023-12-20T02:16:34;6.50;;;2.90;;
84050;SDS011;74137;50.136;19.040;2023-12-20T02:19:24;5.90;;;3.20;;
84050;SDS011;74137;50.136;19.040;2023-12-20T02:22:06;8.30;;;3.90;;
84050;SDS011;74137;50.136;19.040;2023-12-20T02:24:49;6.20;;;3.20;;
84050;SDS011;74137;50.136;19.040;2023-12-20T02:27:17;5.20;;;3.00;;
84050;SDS011;74137;50.136;19.040;2023-12-20T02:29:48;5.60;;;2.80;;
84050;SDS011;74137;50.136;19.040;2023-12-20T02:32:18;6.20;;;3.20;;
84050;SDS011;74137;50.136;19.040;2023-12-20T02:34:49;5.60;;;3.20;;
84050;SDS011;74137;50.136;19.040;2023-12-20T02:37:18;5.80;;;3.20;;
84050;SDS011;74137;50.136;19.040;2023-12-20T02:39:46;7.20;;;3.70;;
84050;SDS011;74137;50.136;19.040;2023-12-20T02:42:15;7.60;;;3.40;;
84050;SDS011;74137;50.136;19.040;2023-12-20T02:44:43;7.60;;;4.00;;
84050;SDS011;74137;50.136;19.040;2023-12-20T02:47:12;7.60;;;3.60;;
84050;SDS011;74137;50.136;19.040;2023-12-20T02:49:40;6.60;;;3.40;;
84050;SDS011;74137;50.136;19.040;2023-12-20T02:52:09;7.00;;;4.00;;
84050;SDS011;74137;50.136;19.040;2023-12-20T02:54:37;6.20;;;4.00;;
84050;SDS011;74137;50.136;19.040;2023-12-20T02:57:06;6.10;;;3.10;;
84050;SDS011;74137;50.136;19.040;2023-12-20T02:59:34;6.20;;;3.40;;
84050;SDS011;74137;50.136;19.040;2023-12-20T03:02:02;6.70;;;4.00;;
84050;SDS011;74137;50.136;19.040;2023-12-20T03:04:31;5.50;;;3.30;;
84050;SDS011;74137;50.136;19.040;2023-12-20T03:07:00;7.10;;;3.40;;
84050;SDS011;74137;50.136;19.040;2023-12-20T03:09:37;6.30;;;3.20;;
84050;SDS011;74137;50.136;19.040;2023-12-20T03:12:48;7.40;;;3.70;;
84050;SDS011;74137;50.136;19.040;2023-12-20T03:15:26;7.50;;;4.50;;
84050;SDS011;74137;50.136;19.040;2023-12-20T03:18:17;6.10;;;3.80;;
84050;SDS011;74137;50.136;19.040;2023-12-20T03:20:48;8.20;;;4.40;;
84050;SDS011;74137;50.136;19.040;2023-12-20T03:23:43;7.30;;;4.10;;
84050;SDS011;74137;50.136;19.040;2023-12-20T03:26:12;7.10;;;4.70;;
84050;SDS011;74137;50.136;19.040;2023-12-20T03:28:40;9.00;;;4.90;;
84050;SDS011;74137;50.136;19.040;2023-12-20T03:31:09;9.00;;;5.20;;
84050;SDS011;74137;50.136;19.040;2023-12-20T03:33:39;9.20;;;5.40;;
84050;SDS011;74137;50.136;19.040;2023-12-20T03:36:51;8.50;;;5.00;;
84050;SDS011;74137;50.136;19.040;2023-12-20T03:44:19;7.80;;;5.10;;
84050;SDS011;74137;50.136;19.040;2023-12-20T03:46:48;13.70;;;6.60;;
84050;SDS011;74137;50.136;19.040;2023-12-20T03:49:17;9.50;;;5.50;;
84050;SDS011;74137;50.136;19.040;2023-12-20T03:51:48;9.20;;;6.10;;
84050;SDS011;74137;50.136;19.040;2023-12-20T03:54:19;9.60;;;6.20;;
84050;SDS011;74137;50.136;19.040;2023-12-20T03:56:47;10.00;;;5.50;;
84050;SDS011;74137;50.136;19.040;2023-12-20T03:59:17;9.10;;;5.60;;
84050;SDS011;74137;50.136;19.040;2023-12-20T04:01:45;8.60;;;5.50;;
84050;SDS011;74137;50.136;19.040;2023-12-20T04:04:14;10.00;;;6.80;;
84050;SDS011;74137;50.136;19.040;2023-12-20T04:06:42;11.00;;;6.90;;
84050;SDS011;74137;50.136;19.040;2023-12-20T04:09:11;11.70;;;6.20;;
84050;SDS011;74137;50.136;19.040;2023-12-20T04:11:40;12.50;;;7.90;;
84050;SDS011;74137;50.136;19.040;2023-12-20T04:14:08;15.80;;;8.00;;
84050;SDS011;74137;50.136;19.040;2023-12-20T04:16:38;14.40;;;9.30;;
84050;SDS011;74137;50.136;19.040;2023-12-20T04:19:07;11.80;;;7.30;;
84050;SDS011;74137;50.136;19.040;2023-12-20T04:21:35;12.20;;;8.30;;
84050;SDS011;74137;50.136;19.040;2023-12-20T04:24:04;13.60;;;8.00;;
84050;SDS011;74137;50.136;19.040;2023-12-20T04:26:32;13.10;;;7.60;;
84050;SDS011;74137;50.136;19.040;2023-12-20T04:29:01;14.30;;;9.00;;
84050;SDS011;74137;50.136;19.040;2023-12-20T04:31:30;13.80;;;8.90;;
84050;SDS011;74137;50.136;19.040;2023-12-20T04:33:59;11.40;;;8.40;;
84050;SDS011;74137;50.136;19.040;2023-12-20T04:36:27;10.90;;;7.50;;
84050;SDS011;74137;50.136;19.040;2023-12-20T04:38:58;10.10;;;6.70;;
84050;SDS011;74137;50.136;19.040;2023-12-20T04:41:28;10.60;;;7.00;;
84050;SDS011;74137;50.136;19.040;2023-12-20T04:43:57;12.20;;;7.20;;
84050;SDS011;74137;50.136;19.040;2023-12-20T04:46:25;13.00;;;8.00;;
84050;SDS011;74137;50.136;19.040;2023-12-20T04:48:54;12.70;;;8.50;;
84050;SDS011;74137;50.136;19.040;2023-12-20T04:51:22;12.00;;;8.00;;
84050;SDS011;74137;50.136;19.040;2023-12-20T04:53:51;12.10;;;8.90;;
84050;SDS011;74137;50.136;19.040;2023-12-20T04:56:19;15.10;;;8.60;;
84050;SDS011;74137;50.136;19.040;2023-12-20T04:58:47;14.30;;;8.30;;
84050;SDS011;74137;50.136;19.040;2023-12-20T05:01:16;13.00;;;8.80;;
84050;SDS011;74137;50.136;19.040;2023-12-20T05:03:45;17.10;;;9.80;;
84050;SDS011;74137;50.136;19.040;2023-12-20T05:06:13;14.30;;;10.40;;
84050;SDS011;74137;50.136;19.040;2023-12-20T05:08:42;13.80;;;9.70;;
84050;SDS011;74137;50.136;19.040;2023-12-20T05:11:11;15.10;;;10.60;;
84050;SDS011;74137;50.136;19.040;2023-12-20T05:13:42;15.80;;;11.40;;
84050;SDS011;74137;50.136;19.040;2023-12-20T05:16:17;15.00;;;10.00;;
84050;SDS011;74137;50.136;19.040;2023-12-20T05:18:48;20.10;;;12.20;;
84050;SDS011;74137;50.136;19.040;2023-12-20T05:23:46;14.90;;;10.50;;
84050;SDS011;74137;50.136;19.040;2023-12-20T05:26:15;14.00;;;9.90;;
84050;SDS011;74137;50.136;19.040;2023-12-20T05:28:43;15.50;;;10.70;;
84050;SDS011;74137;50.136;19.040;2023-12-20T05:31:12;14.50;;;10.70;;
84050;SDS011;74137;50.136;19.040;2023-12-20T05:33:43;18.10;;;10.60;;
84050;SDS011;74137;50.136;19.040;2023-12-20T05:36:11;18.00;;;11.80;;
84050;SDS011;74137;50.136;19.040;2023-12-20T05:38:41;14.50;;;10.50;;
84050;SDS011;74137;50.136;19.040;2023-12-20T05:41:10;18.00;;;11.10;;
84050;SDS011;74137;50.136;19.040;2023-12-20T05:43:39;14.40;;;9.20;;
84050;SDS011;74137;50.136;19.040;2023-12-20T05:46:09;14.40;;;9.60;;
84050;SDS011;74137;50.136;19.040;2023-12-20T05:48:39;18.50;;;11.30;;
84050;SDS011;74137;50.136;19.040;2023-12-20T05:51:10;14.60;;;9.40;;
84050;SDS011;74137;50.136;19.040;2023-12-20T05:53:44;15.60;;;9.10;;
84050;SDS011;74137;50.136;19.040;2023-12-20T05:56:13;14.40;;;9.20;;
84050;SDS011;74137;50.136;19.040;2023-12-20T05:58:41;18.30;;;9.60;;
84050;SDS011;74137;50.136;19.040;2023-12-20T06:01:10;16.20;;;10.40;;
84050;SDS011;74137;50.136;19.040;2023-12-20T06:03:41;15.60;;;10.40;;
84050;SDS011;74137;50.136;19.040;2023-12-20T06:06:10;16.70;;;10.20;;
84050;SDS011;74137;50.136;19.040;2023-12-20T06:08:43;16.90;;;9.60;;
84050;SDS011;74137;50.136;19.040;2023-12-20T06:11:12;14.50;;;9.40;;
84050;SDS011;74137;50.136;19.040;2023-12-20T06:13:41;15.40;;;9.20;;
84050;SDS011;74137;50.136;19.040;2023-12-20T06:16:09;15.90;;;10.30;;
84050;SDS011;74137;50.136;19.040;2023-12-20T06:18:42;16.20;;;11.10;;
84050;SDS011;74137;50.136;19.040;2023-12-20T06:21:12;15.00;;;10.10;;
84050;SDS011;74137;50.136;19.040;2023-12-20T06:23:41;16.50;;;11.00;;
84050;SDS011;74137;50.136;19.040;2023-12-20T06:26:14;14.40;;;10.10;;
84050;SDS011;74137;50.136;19.040;2023-12-20T06:28:43;19.80;;;10.70;;
84050;SDS011;74137;50.136;19.040;2023-12-20T06:31:14;14.90;;;10.60;;
84050;SDS011;74137;50.136;19.040;2023-12-20T06:33:43;16.20;;;10.40;;
84050;SDS011;74137;50.136;19.040;2023-12-20T06:36:12;13.80;;;9.90;;
84050;SDS011;74137;50.136;19.040;2023-12-20T06:38:41;14.20;;;9.70;;
84050;SDS011;74137;50.136;19.040;2023-12-20T06:41:24;18.80;;;11.10;;
84050;SDS011;74137;50.136;19.040;2023-12-20T06:43:52;15.70;;;9.60;;
84050;SDS011;74137;50.136;19.040;2023-12-20T06:46:21;13.40;;;9.00;;
84050;SDS011;74137;50.136;19.040;2023-12-20T06:49:09;17.00;;;11.60;;
84050;SDS011;74137;50.136;19.040;2023-12-20T06:51:52;16.00;;;10.40;;
84050;SDS011;74137;50.136;19.040;2023-12-20T06:54:22;13.80;;;9.00;;
84050;SDS011;74137;50.136;19.040;2023-12-20T06:56:51;16.20;;;10.70;;
84050;SDS011;74137;50.136;19.040;2023-12-20T06:59:20;16.20;;;10.60;;
84050;SDS011;74137;50.136;19.040;2023-12-20T07:01:48;15.40;;;10.50;;
84050;SDS011;74137;50.136;19.040;2023-12-20T07:04:17;15.30;;;9.80;;
84050;SDS011;74137;50.136;19.040;2023-12-20T07:06:50;14.10;;;8.80;;
84050;SDS011;74137;50.136;19.040;2023-12-20T07:09:26;16.70;;;11.40;;
84050;SDS011;74137;50.136;19.040;2023-12-20T07:11:54;15.30;;;10.00;;
84050;SDS011;74137;50.136;19.040;2023-12-20T07:14:23;16.20;;;10.70;;
84050;SDS011;74137;50.136;19.040;2023-12-20T07:16:54;17.00;;;11.40;;
84050;SDS011;74137;50.136;19.040;2023-12-20T07:19:22;17.10;;;11.60;;
84050;SDS011;74137;50.136;19.040;2023-12-20T07:21:51;15.00;;;10.70;;
84050;SDS011;74137;50.136;19.040;2023-12-20T07:24:20;17.50;;;11.30;;
84050;SDS011;74137;50.136;19.040;2023-12-20T07:26:51;13.30;;;9.00;;
84050;SDS011;74137;50.136;19.040;2023-12-20T07:29:20;15.40;;;11.30;;
84050;SDS011;74137;50.136;19.040;2023-12-20T07:31:48;16.90;;;11.60;;
84050;SDS011;74137;50.136;19.040;2023-12-20T07:34:19;21.40;;;13.30;;
84050;SDS011;74137;50.136;19.040;2023-12-20T07:36:49;23.30;;;13.70;;
84050;SDS011;74137;50.136;19.040;2023-12-20T07:39:17;18.20;;;12.40;;
84050;SDS011;74137;50.136;19.040;2023-12-20T07:41:46;15.70;;;10.10;;
84050;SDS011;74137;50.136;19.040;2023-12-20T07:44:18;16.50;;;10.40;;
84050;SDS011;74137;50.136;19.040;2023-12-20T07:46:49;16.10;;;11.30;;
84050;SDS011;74137;50.136;19.040;2023-12-20T07:49:18;14.80;;;10.10;;
84050;SDS011;74137;50.136;19.040;2023-12-20T07:51:57;17.40;;;11.40;;
84050;SDS011;74137;50.136;19.040;2023-12-20T07:54:26;18.10;;;12.10;;
84050;SDS011;74137;50.136;19.040;2023-12-20T07:56:55;15.80;;;10.50;;
84050;SDS011;74137;50.136;19.040;2023-12-20T07:59:26;19.50;;;12.70;;
84050;SDS011;74137;50.136;19.040;2023-12-20T08:02:00;17.30;;;11.40;;
84050;SDS011;74137;50.136;19.040;2023-12-20T08:04:29;16.50;;;11.90;;
84050;SDS011;74137;50.136;19.040;2023-12-20T08:06:57;18.90;;;13.40;;
84050;SDS011;74137;50.136;19.040;2023-12-20T08:09:26;17.50;;;11.20;;
84050;SDS011;74137;50.136;19.040;2023-12-20T08:11:59;14.30;;;9.40;;
84050;SDS011;74137;50.136;19.040;2023-12-20T08:14:27;16.20;;;11.80;;
84050;SDS011;74137;50.136;19.040;2023-12-20T08:16:56;21.90;;;14.80;;
84050;SDS011;74137;50.136;19.040;2023-12-20T08:19:24;16.90;;;10.40;;
84050;SDS011;74137;50.136;19.040;2023-12-20T08:21:53;20.60;;;12.50;;
84050;SDS011;74137;50.136;19.040;2023-12-20T08:24:21;18.60;;;12.60;;
84050;SDS011;74137;50.136;19.040;2023-12-20T08:26:50;19.40;;;12.90;;
84050;SDS011;74137;50.136;19.040;2023-12-20T08:29:18;16.70;;;10.70;;
84050;SDS011;74137;50.136;19.040;2023-12-20T08:31:46;17.40;;;10.10;;
84050;SDS011;74137;50.136;19.040;2023-12-20T08:34:22;21.80;;;13.40;;
84050;SDS011;74137;50.136;19.040;2023-12-20T08:36:54;18.60;;;12.40;;
84050;SDS011;74137;50.136;19.040;2023-12-20T08:39:22;15.40;;;10.50;;
84050;SDS011;74137;50.136;19.040;2023-12-20T08:41:50;16.40;;;10.80;;
84050;SDS011;74137;50.136;19.040;2023-12-20T08:44:23;18.40;;;12.20;;
84050;SDS011;74137;50.136;19.040;2023-12-20T08:46:51;18.00;;;10.10;;
84050;SDS011;74137;50.136;19.040;2023-12-20T08:49:20;18.90;;;11.50;;
84050;SDS011;74137;50.136;19.040;2023-12-20T08:51:50;14.00;;;10.20;;
84050;SDS011;74137;50.136;19.040;2023-12-20T08:54:27;22.20;;;12.50;;
84050;SDS011;74137;50.136;19.040;2023-12-20T08:56:57;14.60;;;9.90;;
84050;SDS011;74137;50.136;19.040;2023-12-20T08:59:26;18.10;;;12.10;;
84050;SDS011;74137;50.136;19.040;2023-12-20T09:01:55;14.90;;;9.30;;
84050;SDS011;74137;50.136;19.040;2023-12-20T09:04:25;19.00;;;12.40;;
84050;SDS011;74137;50.136;19.040;2023-12-20T09:06:53;14.70;;;10.80;;
84050;SDS011;74137;50.136;19.040;2023-12-20T09:09:27;17.50;;;12.20;;
84050;SDS011;74137;50.136;19.040;2023-12-20T09:11:55;18.30;;;11.30;;
84050;SDS011;74137;50.136;19.040;2023-12-20T09:14:27;17.90;;;12.30;;
84050;SDS011;74137;50.136;19.040;2023-12-20T09:16:57;21.00;;;14.00;;
84050;SDS011;74137;50.136;19.040;2023-12-20T09:19:26;19.40;;;12.30;;
84050;SDS011;74137;50.136;19.040;2023-12-20T09:21:55;17.30;;;12.40;;
84050;SDS011;74137;50.136;19.040;2023-12-20T09:24:23;16.70;;;11.10;;
84050;SDS011;74137;50.136;19.040;2023-12-20T09:26:54;17.50;;;11.60;;
84050;SDS011;74137;50.136;19.040;2023-12-20T09:29:23;17.30;;;11.60;;
84050;SDS011;74137;50.136;19.040;2023-12-20T09:31:52;15.70;;;9.70;;
84050;SDS011;74137;50.136;19.040;2023-12-20T09:34:21;19.80;;;13.50;;
84050;SDS011;74137;50.136;19.040;2023-12-20T09:36:52;16.60;;;11.40;;
84050;SDS011;74137;50.136;19.040;2023-12-20T09:39:20;14.70;;;9.70;;
84050;SDS011;74137;50.136;19.040;2023-12-20T09:41:51;20.30;;;13.20;;
84050;SDS011;74137;50.136;19.040;2023-12-20T09:44:27;14.40;;;9.80;;
84050;SDS011;74137;50.136;19.040;2023-12-20T09:47:04;14.70;;;10.00;;
84050;SDS011;74137;50.136;19.040;2023-12-20T09:49:34;16.00;;;11.00;;
84050;SDS011;74137;50.136;19.040;2023-12-20T09:52:03;18.50;;;12.70;;
84050;SDS011;74137;50.136;19.040;2023-12-20T09:54:33;18.30;;;11.60;;
84050;SDS011;74137;50.136;19.040;2023-12-20T09:57:02;18.20;;;12.70;;
84050;SDS011;74137;50.136;19.040;2023-12-20T09:59:31;20.40;;;14.50;;
84050;SDS011;74137;50.136;19.040;2023-12-20T10:02:00;15.10;;;8.90;;
84050;SDS011;74137;50.136;19.040;2023-12-20T10:04:31;17.40;;;12.10;;
84050;SDS011;74137;50.136;19.040;2023-12-20T10:07:06;16.90;;;11.80;;
84050;SDS011;74137;50.136;19.040;2023-12-20T10:09:35;15.90;;;11.90;;
84050;SDS011;74137;50.136;19.040;2023-12-20T10:12:04;18.70;;;12.50;;
84050;SDS011;74137;50.136;19.040;2023-12-20T10:14:33;17.50;;;11.10;;
84050;SDS011;74137;50.136;19.040;2023-12-20T10:17:02;18.10;;;11.20;;
84050;SDS011;74137;50.136;19.040;2023-12-20T10:19:31;15.60;;;10.30;;
84050;SDS011;74137;50.136;19.040;2023-12-20T10:22:00;17.30;;;10.30;;
84050;SDS011;74137;50.136;19.040;2023-12-20T10:24:32;15.90;;;11.60;;
84050;SDS011;74137;50.136;19.040;2023-12-20T10:27:01;18.60;;;12.00;;
84050;SDS011;74137;50.136;19.040;2023-12-20T10:29:36;16.10;;;10.20;;
84050;SDS011;74137;50.136;19.040;2023-12-20T10:32:25;14.70;;;10.40;;
84050;SDS011;74137;50.136;19.040;2023-12-20T10:37:24;18.40;;;11.80;;
84050;SDS011;74137;50.136;19.040;2023-12-20T10:39:54;14.90;;;10.60;;
84050;SDS011;74137;50.136;19.040;2023-12-20T10:42:28;14.40;;;9.60;;
84050;SDS011;74137;50.136;19.040;2023-12-20T10:45:04;17.80;;;10.70;;
84050;SDS011;74137;50.136;19.040;2023-12-20T10:47:33;14.30;;;9.90;;
84050;SDS011;74137;50.136;19.040;2023-12-20T10:50:06;14.80;;;9.40;;
84050;SDS011;74137;50.136;19.040;2023-12-20T10:52:36;15.10;;;10.80;;
84050;SDS011;74137;50.136;19.040;2023-12-20T10:55:05;13.50;;;9.50;;
84050;SDS011;74137;50.136;19.040;2023-12-20T10:57:35;14.10;;;9.70;;
84050;SDS011;74137;50.136;19.040;2023-12-20T11:02:35;16.20;;;11.00;;
84050;SDS011;74137;50.136;19.040;2023-12-20T11:08:06;14.60;;;10.30;;
84050;SDS011;74137;50.136;19.040;2023-12-20T11:13:34;13.10;;;8.60;;
84050;SDS011;74137;50.136;19.040;2023-12-20T11:16:06;15.90;;;10.30;;
84050;SDS011;74137;50.136;19.040;2023-12-20T11:18:36;15.90;;;10.50;;
84050;SDS011;74137;50.136;19.040;2023-12-20T11:21:24;15.10;;;9.10;;
84050;SDS011;74137;50.136;19.040;2023-12-20T11:23:57;14.20;;;8.80;;
84050;SDS011;74137;50.136;19.040;2023-12-20T11:26:28;12.90;;;8.60;;
84050;SDS011;74137;50.136;19.040;2023-12-20T11:31:45;15.20;;;10.00;;
84050;SDS011;74137;50.136;19.040;2023-12-20T11:34:16;15.50;;;10.20;;
84050;SDS011;74137;50.136;19.040;2023-12-20T11:36:45;12.60;;;8.70;;
84050;SDS011;74137;50.136;19.040;2023-12-20T11:39:20;14.50;;;10.20;;
84050;SDS011;74137;50.136;19.040;2023-12-20T11:41:49;13.80;;;9.90;;
84050;SDS011;74137;50.136;19.040;2023-12-20T11:44:20;14.50;;;10.40;;
84050;SDS011;74137;50.136;19.040;2023-12-20T11:46:48;14.40;;;8.30;;
84050;SDS011;74137;50.136;19.040;2023-12-20T11:49:17;16.50;;;10.30;;
84050;SDS011;74137;50.136;19.040;2023-12-20T11:51:49;18.60;;;12.50;;
84050;SDS011;74137;50.136;19.040;2023-12-20T11:54:19;18.00;;;10.40;;
84050;SDS011;74137;50.136;19.040;2023-12-20T11:56:48;15.40;;;9.60;;
84050;SDS011;74137;50.136;19.040;2023-12-20T11:59:19;16.30;;;10.30;;
84050;SDS011;74137;50.136;19.040;2023-12-20T12:01:51;17.80;;;11.70;;
84050;SDS011;74137;50.136;19.040;2023-12-20T12:04:20;15.50;;;8.80;;
84050;SDS011;74137;50.136;19.040;2023-12-20T12:06:48;17.10;;;10.00;;
84050;SDS011;74137;50.136;19.040;2023-12-20T12:09:17;13.10;;;8.20;;
84050;SDS011;74137;50.136;19.040;2023-12-20T12:11:45;17.10;;;11.20;;
84050;SDS011;74137;50.136;19.040;2023-12-20T12:14:14;15.90;;;9.60;;
84050;SDS011;74137;50.136;19.040;2023-12-20T12:16:42;13.30;;;8.80;;
84050;SDS011;74137;50.136;19.040;2023-12-20T12:19:23;14.80;;;9.80;;
84050;SDS011;74137;50.136;19.040;2023-12-20T12:24:44;14.80;;;9.30;;
84050;SDS011;74137;50.136;19.040;2023-12-20T12:27:13;17.20;;;11.20;;
84050;SDS011;74137;50.136;19.040;2023-12-20T12:30:00;16.40;;;10.80;;
84050;SDS011;74137;50.136;19.040;2023-12-20T12:32:30;14.90;;;9.70;;
84050;SDS011;74137;50.136;19.040;2023-12-20T12:37:34;14.90;;;10.00;;
84050;SDS011;74137;50.136;19.040;2023-12-20T12:40:09;14.30;;;9.70;;
84050;SDS011;74137;50.136;19.040;2023-12-20T12:42:44;15.30;;;10.50;;
84050;SDS011;74137;50.136;19.040;2023-12-20T12:45:13;13.70;;;8.00;;
84050;SDS011;74137;50.136;19.040;2023-12-20T12:47:42;15.00;;;9.90;;
84050;SDS011;74137;50.136;19.040;2023-12-20T12:50:11;16.60;;;10.30;;
84050;SDS011;74137;50.136;19.040;2023-12-20T12:52:40;14.10;;;9.20;;
84050;SDS011;74137;50.136;19.040;2023-12-20T12:55:08;14.50;;;9.20;;
84050;SDS011;74137;50.136;19.040;2023-12-20T12:57:36;12.00;;;8.70;;
84050;SDS011;74137;50.136;19.040;2023-12-20T13:00:05;11.80;;;7.90;;
84050;SDS011;74137;50.136;19.040;2023-12-20T13:02:37;12.40;;;7.70;;
84050;SDS011;74137;50.136;19.040;2023-12-20T13:05:06;13.30;;;8.70;;
84050;SDS011;74137;50.136;19.040;2023-12-20T13:07:34;15.00;;;8.50;;
84050;SDS011;74137;50.136;19.040;2023-12-20T13:10:03;12.40;;;8.30;;
84050;SDS011;74137;50.136;19.040;2023-12-20T13:12:32;14.00;;;8.90;;
84050;SDS011;74137;50.136;19.040;2023-12-20T13:15:00;15.80;;;9.60;;
84050;SDS011;74137;50.136;19.040;2023-12-20T13:17:29;14.10;;;9.50;;
84050;SDS011;74137;50.136;19.040;2023-12-20T13:20:00;10.90;;;7.70;;
84050;SDS011;74137;50.136;19.040;2023-12-20T13:22:29;11.70;;;7.60;;
84050;SDS011;74137;50.136;19.040;2023-12-20T13:24:57;13.20;;;8.50;;
84050;SDS011;74137;50.136;19.040;2023-12-20T13:27:26;12.40;;;8.20;;
84050;SDS011;74137;50.136;19.040;2023-12-20T13:29:55;13.60;;;9.50;;
84050;SDS011;74137;50.136;19.040;2023-12-20T13:32:24;14.20;;;10.30;;
84050;SDS011;74137;50.136;19.040;2023-12-20T13:34:55;12.10;;;8.40;;
84050;SDS011;74137;50.136;19.040;2023-12-20T13:37:24;11.00;;;8.40;;
84050;SDS011;74137;50.136;19.040;2023-12-20T13:39:53;14.60;;;8.00;;
84050;SDS011;74137;50.136;19.040;2023-12-20T13:42:21;11.90;;;7.50;;
84050;SDS011;74137;50.136;19.040;2023-12-20T13:44:50;11.70;;;7.00;;
84050;SDS011;74137;50.136;19.040;2023-12-20T13:47:18;11.90;;;7.20;;
84050;SDS011;74137;50.136;19.040;2023-12-20T13:49:51;11.80;;;7.40;;
84050;SDS011;74137;50.136;19.040;2023-12-20T13:52:20;13.40;;;8.80;;
84050;SDS011;74137;50.136;19.040;2023-12-20T13:54:49;12.40;;;7.20;;
84050;SDS011;74137;50.136;19.040;2023-12-20T13:57:17;13.50;;;8.40;;
84050;SDS011;74137;50.136;19.040;2023-12-20T14:00:06;13.70;;;7.90;;
84050;SDS011;74137;50.136;19.040;2023-12-20T14:02:42;10.20;;;6.60;;
84050;SDS011;74137;50.136;19.040;2023-12-20T14:05:11;12.50;;;8.00;;
84050;SDS011;74137;50.136;19.040;2023-12-20T14:07:41;12.80;;;8.20;;
84050;SDS011;74137;50.136;19.040;2023-12-20T14:10:14;14.60;;;10.10;;
84050;SDS011;74137;50.136;19.040;2023-12-20T14:12:42;16.80;;;10.10;;
84050;SDS011;74137;50.136;19.040;2023-12-20T14:15:13;13.90;;;9.10;;
84050;SDS011;74137;50.136;19.040;2023-12-20T14:17:41;19.50;;;11.20;;
84050;SDS011;74137;50.136;19.040;2023-12-20T14:22:42;13.40;;;9.00;;
84050;SDS011;74137;50.136;19.040;2023-12-20T14:25:13;14.00;;;8.60;;
84050;SDS011;74137;50.136;19.040;2023-12-20T14:27:43;13.00;;;9.10;;
84050;SDS011;74137;50.136;19.040;2023-12-20T14:30:15;12.60;;;7.40;;
84050;SDS011;74137;50.136;19.040;2023-12-20T14:32:45;14.60;;;9.20;;
84050;SDS011;74137;50.136;19.040;2023-12-20T14:35:16;12.90;;;8.90;;
84050;SDS011;74137;50.136;19.040;2023-12-20T14:37:47;12.60;;;7.00;;
84050;SDS011;74137;50.136;19.040;2023-12-20T14:40:16;12.90;;;8.60;;
84050;SDS011;74137;50.136;19.040;2023-12-20T14:42:45;9.10;;;6.20;;
84050;SDS011;74137;50.136;19.040;2023-12-20T14:45:14;10.50;;;7.20;;
84050;SDS011;74137;50.136;19.040;2023-12-20T14:47:44;12.10;;;8.10;;
84050;SDS011;74137;50.136;19.040;2023-12-20T14:50:13;10.40;;;7.50;;
84050;SDS011;74137;50.136;19.040;2023-12-20T14:52:47;13.20;;;8.60;;
84050;SDS011;74137;50.136;19.040;2023-12-20T14:55:22;14.00;;;8.80;;
84050;SDS011;74137;50.136;19.040;2023-12-20T14:57:51;12.90;;;8.50;;
84050;SDS011;74137;50.136;19.040;2023-12-20T15:00:22;11.90;;;8.50;;
84050;SDS011;74137;50.136;19.040;2023-12-20T15:02:50;16.00;;;10.00;;
84050;SDS011;74137;50.136;19.040;2023-12-20T15:05:19;16.10;;;11.40;;
84050;SDS011;74137;50.136;19.040;2023-12-20T15:07:47;15.20;;;10.50;;
84050;SDS011;74137;50.136;19.040;2023-12-20T15:10:16;13.30;;;9.80;;
84050;SDS011;74137;50.136;19.040;2023-12-20T15:12:45;16.70;;;10.80;;
84050;SDS011;74137;50.136;19.040;2023-12-20T15:15:14;15.10;;;10.50;;